aviador You're here:

KAAF Decoded Metar

APALACHICOLA in FL, USA
Report Time2017-05-25 00:53:00
UTC Time2017-05-25 01:17:34
Flight Rules vfr VFR
Wind270° at 12 kt
W.Decomp.*RWY 24: 10.1 kt HW 6.5 kt RCW
RWY 32: 8.2 kt HW 8.8 kt LCW
RWY 36: 0.6 kt HW 12 kt LCW
W.Rank270° ranks 31
Current wind is above 270° avg. (7.3)
Visibility9999 m
Phenomena:N/A
Clouds:N/A
Expected CloudBase > 2,000 ft AGL from Temp-Dew spread
CeilingNone
Temp22°C (ISA +7)
Dew Point17°C (73% RH)
AAT20.0°C
QNH1003 hPa
Density Alt1,430 ft
Elevation16 ft
Report Wrong Elevation
Raw Report
KAAF 250053Z AUTO 27012KT 10SM CLR 22/17 A2963 RMK AO2 SLP033
T02220167 TSNO=

Extra information for KAAF:More info

Metar Taf Metar & Taf Last 4 Metars F.Rules Stats Wind Profile Meteogram Temp Stats Airport Information Weather charts Add Link Nearby VenuesMetar ALERT Operation Metar Decoded Social comments

AIRNAV info for KAAF